»·PEaware :: N161BG NONE-KPDX

N161BG :: NONE-KPDX

FLIGHT INFORMATION

Flight Status: Arrived
Operator: Privately registered:
United States
More flights under this callsign
Pilot: James W. (17613)
Aircraft: Unknown
(JAB2)
More flights by this aircraft type
Origin: NONE
Destination: KPDX Portland Intl
United States
More flights between these airports :: More routes between these airports
Route: +
File this flight plan on PilotEdge
Remarks:
Altitude:
(Current/Filed)
5,500ft
Speed:
(Current/Filed)
0kts
Departed: 21-Dec-17 02:55 PM
Arrived: 21-Dec-17 03:30 PM
Distance/Time
Traveled:
Not Available
Distance/Time
To Go:
Arrived

Flight Plot

Page will automatically refresh every two minutes.

Flight plan parsing failed; only flown route is shown


Map Options




Map Legend


Flown Route
Filed Route
Departure Airport
Arrival Airport
Navaid (VOR, NDB)
Fix

Horizontal Profiles

Position Reports

Time Latitude Longitude Heading Altitude Ground
Speed
21-Dec-17 15:00 46.564858 -122.927345 170 4803ft 94kts
21-Dec-17 15:01 46.549487 -122.921938 171 5185ft 86kts
21-Dec-17 15:02 46.534862 -122.916843 172 5487ft 91kts
21-Dec-17 15:03 46.515611 -122.910316 171 5500ft 105kts
21-Dec-17 15:04 46.491789 -122.902139 171 5504ft 107kts
21-Dec-17 15:05 46.467384 -122.893745 171 5509ft 107kts
21-Dec-17 15:06 46.440092 -122.884364 170 5516ft 107kts
21-Dec-17 15:07 46.411147 -122.874486 170 5523ft 119kts
21-Dec-17 15:08 46.379659 -122.863681 170 5528ft 126kts
21-Dec-17 15:09 46.345424 -122.851912 170 5527ft 128kts
21-Dec-17 15:10 46.311311 -122.840226 170 5526ft 128kts
21-Dec-17 15:11 46.276854 -122.828449 170 5526ft 128kts
21-Dec-17 15:12 46.242305 -122.816659 170 5526ft 128kts
21-Dec-17 15:13 46.207710 -122.804870 170 5526ft 128kts
21-Dec-17 15:14 46.173432 -122.793129 170 5526ft 128kts
21-Dec-17 15:15 46.140719 -122.782028 170 5526ft 128kts
21-Dec-17 15:16 46.109174 -122.771322 170 5526ft 128kts
21-Dec-17 15:17 46.077060 -122.760448 170 5526ft 128kts
21-Dec-17 15:18 46.046859 -122.750328 170 5526ft 129kts
21-Dec-17 15:19 46.019767 -122.741313 169 4949ft 129kts
21-Dec-17 15:20 45.997153 -122.733765 167 3587ft 120kts
21-Dec-17 15:21 45.976123 -122.726545 167 3529ft 126kts
21-Dec-17 15:22 45.955451 -122.719540 165 3524ft 133kts
21-Dec-17 15:23 45.922266 -122.708366 166 3079ft 149kts
21-Dec-17 15:24 45.884161 -122.695546 166 3069ft 142kts
21-Dec-17 15:25 45.845929 -122.682694 166 3069ft 141kts
21-Dec-17 15:26 45.809094 -122.670390 166 3063ft 115kts
21-Dec-17 15:27 45.778933 -122.660269 166 2222ft 128kts
21-Dec-17 15:28 45.748207 -122.649998 166 1566ft 105kts
21-Dec-17 15:29 45.722624 -122.641436 166 1091ft 113kts
21-Dec-17 15:30 45.697663 -122.633107 166 1067ft 90kts
21-Dec-17 15:31 45.677581 -122.626337 166 1067ft 97kts
21-Dec-17 15:32 45.652753 -122.618029 166 1079ft 111kts
21-Dec-17 15:33 45.631541 -122.612844 178 919ft 107kts
21-Dec-17 15:34 45.603703 -122.613274 145 407ft 96kts
21-Dec-17 15:35 45.593976 -122.593570 117 28ft 52kts
21-Dec-17 15:36 45.589350 -122.582326 146 28ft 30kts
21-Dec-17 15:37 45.587057 -122.578926 114 28ft 20kts
21-Dec-17 15:38 45.585933 -122.577709 309 28ft 0kts
21-Dec-17 15:39 46.673804 -122.985192 127 180ft 0kts
21-Dec-17 15:40 46.673804 -122.985192 127 180ft 0kts
21-Dec-17 15:41 33.241185 -115.952514 359 -79ft 0kts
21-Dec-17 15:42 33.241185 -115.952514 359 -79ft 0kts
21-Dec-17 15:43 33.241185 -115.952514 359 -79ft 0kts
21-Dec-17 15:44 33.241185 -115.952514 359 -79ft 0kts
21-Dec-17 15:45 33.666815 -117.872212 48 60ft 0kts
21-Dec-17 15:46 33.666819 -117.872205 55 60ft 0kts
21-Dec-17 15:47 33.666823 -117.872197 55 60ft 0kts
21-Dec-17 15:48 33.666822 -117.872186 55 60ft 0kts
21-Dec-17 15:49 33.666820 -117.872167 55 60ft 0kts
21-Dec-17 15:50 33.666823 -117.872157 55 60ft 0kts
21-Dec-17 15:51 33.666954 -117.872139 353 60ft 0kts

Navigation Log

Ident Type
Flight plan parsing failed, navigation log unavailable